createdAt,value
2023-04-21T08:47:11.435Z,27.08
2023-04-21T08:49:39.526Z,25.48
2023-04-21T08:52:06.739Z,22.90
2023-04-21T08:54:36.284Z,24.70
2023-04-21T08:57:14.042Z,26.50
2023-04-21T08:59:41.802Z,24.05
2023-04-21T09:02:17.251Z,26.20
2023-04-21T09:04:46.102Z,21.02
2023-04-21T09:07:29.732Z,23.13
2023-04-21T09:12:24.528Z,20.13
2023-04-21T09:14:52.699Z,21.33
2023-04-21T09:17:23.420Z,23.75
2023-04-21T09:19:50.419Z,23.05
2023-04-21T09:22:18.635Z,19.77
2023-04-21T09:24:56.928Z,19.92
2023-04-21T09:27:23.750Z,21.35
2023-04-21T09:29:50.794Z,21.88
2023-04-21T09:32:22.273Z,21.48
2023-04-21T09:34:49.630Z,20.35
2023-04-21T09:37:18.751Z,22.08
2023-04-21T09:40:03.278Z,20.15
2023-04-21T09:42:32.563Z,24.40
2023-04-21T09:45:16.499Z,20.25
2023-04-21T09:47:50.632Z,22.45
2023-04-21T09:50:26.803Z,21.50
2023-04-21T09:53:10.353Z,24.20
2023-04-21T09:55:37.826Z,22.67
2023-04-21T09:58:09.933Z,25.33
2023-04-21T10:00:39.927Z,22.40
2023-04-21T10:03:12.314Z,24.77
2023-04-21T10:05:42.352Z,19.67
2023-04-21T10:08:11.818Z,21.60
2023-04-21T10:10:39.798Z,20.90
2023-04-21T10:13:07.508Z,19.38
2023-04-21T10:15:36.069Z,21.33
2023-04-21T10:18:18.711Z,20.75
2023-04-21T10:21:03.827Z,19.98
2023-04-21T10:23:32.159Z,19.65
2023-04-21T10:26:26.276Z,19.83
2023-04-21T10:29:02.335Z,19.33
2023-04-21T10:31:51.199Z,18.63
2023-04-21T10:34:20.786Z,18.63
2023-04-21T10:37:10.921Z,23.45
2023-04-21T10:39:42.602Z,20.38
2023-04-21T10:42:29.580Z,20.30
2023-04-21T10:44:59.843Z,17.40
2023-04-21T10:47:44.054Z,18.17
2023-04-21T10:50:20.327Z,18.10
2023-04-21T10:52:58.287Z,16.42
2023-04-21T10:55:29.835Z,13.75
2023-04-21T10:57:56.909Z,13.95
2023-04-21T11:00:25.085Z,14.65
2023-04-21T11:02:58.105Z,15.07
2023-04-21T11:05:29.780Z,15.85
2023-04-21T11:08:13.516Z,14.68
2023-04-21T11:10:53.430Z,14.63
2023-04-21T11:13:33.590Z,12.25
2023-04-21T11:16:06.816Z,13.93
2023-04-21T11:18:44.672Z,10.43
2023-04-21T11:21:21.748Z,11.00
2023-04-21T11:23:54.470Z,10.30
2023-04-21T11:26:31.628Z,10.57
2023-04-21T11:29:03.584Z,10.35
2023-04-21T11:31:31.106Z,11.90
2023-04-21T11:34:00.047Z,13.40
2023-04-21T11:36:27.535Z,12.73
2023-04-21T11:38:55.367Z,12.13
2023-04-21T11:41:23.832Z,12.38
2023-04-21T11:43:52.131Z,8.35
2023-04-21T11:46:27.141Z,8.13
2023-04-21T11:49:07.505Z,10.80
2023-04-21T11:51:44.339Z,12.68
2023-04-21T11:54:13.261Z,7.88
2023-04-21T11:56:42.575Z,10.52
2023-04-21T11:59:19.602Z,9.40
2023-04-21T12:01:49.331Z,7.00
2023-04-21T12:04:17.841Z,8.63
2023-04-21T12:06:46.370Z,8.32
2023-04-21T12:09:20.943Z,9.25
2023-04-21T12:11:50.234Z,9.02
2023-04-21T12:14:19.474Z,9.07
2023-04-21T12:16:50.712Z,7.57
2023-04-21T12:19:25.356Z,6.28
2023-04-21T12:21:56.516Z,5.35
2023-04-21T12:24:23.507Z,6.78
2023-04-21T12:26:50.684Z,5.35
2023-04-21T12:29:17.605Z,6.80
2023-04-21T12:31:44.500Z,5.43
2023-04-21T12:34:11.507Z,5.78
2023-04-21T12:36:40.246Z,4.25
2023-04-21T12:39:07.350Z,4.53
2023-04-21T12:41:34.755Z,5.35
2023-04-21T12:44:01.705Z,5.55
2023-04-21T12:46:28.849Z,5.15
2023-04-21T12:48:56.171Z,6.18
2023-04-21T12:51:23.113Z,6.22
2023-04-21T12:53:50.224Z,7.22
2023-04-21T12:56:17.877Z,5.93
2023-04-21T12:58:44.929Z,5.70
2023-04-21T13:01:14.884Z,8.20
2023-04-21T13:03:42.723Z,8.07
2023-04-21T13:06:10.535Z,6.05
2023-04-21T13:08:37.809Z,5.70
2023-04-21T13:11:05.409Z,6.78
2023-04-21T13:13:33.665Z,5.95
2023-04-21T13:16:00.508Z,9.77
2023-04-21T13:18:27.488Z,6.10
2023-04-21T13:20:54.350Z,9.13
2023-04-21T13:23:22.740Z,7.68
2023-04-21T13:25:50.933Z,8.75
2023-04-21T13:28:18.086Z,8.70
2023-04-21T13:30:45.303Z,7.75
2023-04-21T13:33:12.682Z,7.88
2023-04-21T13:35:39.599Z,5.68
2023-04-21T13:38:07.122Z,5.75
2023-04-21T13:40:33.957Z,6.15
2023-04-21T13:43:00.871Z,6.47
2023-04-21T13:45:27.761Z,8.10
2023-04-21T13:47:54.666Z,6.63
2023-04-21T13:50:21.834Z,7.20
2023-04-21T13:52:49.393Z,8.65
2023-04-21T13:55:16.806Z,7.97
2023-04-21T13:57:43.697Z,8.57
2023-04-21T14:00:11.324Z,11.88
2023-04-21T14:02:39.616Z,8.88
2023-04-21T14:05:07.067Z,11.68
2023-04-21T14:07:35.827Z,10.50
2023-04-21T14:10:03.491Z,9.90
2023-04-21T14:12:30.563Z,7.80
2023-04-21T14:14:57.387Z,7.45
2023-04-21T14:17:24.349Z,6.70
2023-04-21T14:19:53.680Z,9.10
2023-04-21T14:22:21.980Z,10.85
2023-04-21T14:24:48.862Z,8.07
2023-04-21T14:27:16.889Z,9.05
2023-04-21T14:29:43.751Z,8.88
2023-04-21T14:32:11.767Z,7.55
2023-04-21T14:34:38.646Z,6.70
2023-04-21T14:37:05.569Z,8.30
2023-04-21T14:39:33.739Z,7.28
2023-04-21T14:42:01.809Z,7.22
2023-04-21T14:44:28.957Z,5.18
2023-04-21T14:47:08.418Z,7.03
2023-04-21T14:49:40.872Z,6.60
2023-04-21T14:52:07.762Z,11.05
2023-04-21T14:54:34.651Z,5.55
2023-04-21T14:57:14.644Z,5.60
2023-04-21T14:59:46.871Z,5.65
2023-04-21T15:02:14.473Z,5.57
2023-04-21T15:04:41.769Z,7.25
2023-04-21T15:07:08.820Z,7.60
2023-04-21T15:09:36.543Z,6.43
2023-04-21T15:12:04.472Z,5.10
2023-04-21T15:14:31.584Z,7.00
2023-04-21T15:16:58.495Z,6.03
2023-04-21T15:19:25.779Z,4.78
2023-04-21T15:21:53.009Z,6.10
2023-04-21T15:24:19.894Z,7.13
2023-04-21T15:26:46.883Z,6.45
2023-04-21T15:29:13.794Z,8.10
2023-04-21T15:31:41.129Z,5.00
2023-04-21T15:34:10.136Z,6.18
2023-04-21T15:36:37.884Z,5.15
2023-04-21T15:39:04.755Z,7.78
2023-04-21T15:41:31.783Z,6.53
2023-04-21T15:44:00.411Z,6.28
2023-04-21T15:46:27.491Z,5.32
2023-04-21T15:48:54.683Z,7.30
2023-04-21T15:51:22.134Z,7.22
2023-04-21T15:53:49.494Z,5.88
2023-04-21T15:56:17.083Z,7.20
2023-04-21T15:58:44.094Z,5.00
2023-04-21T16:01:11.530Z,6.63
2023-04-21T16:03:40.298Z,6.32
2023-04-21T16:06:07.882Z,5.35
2023-04-21T16:08:35.117Z,4.45
2023-04-21T16:11:02.124Z,4.93
2023-04-21T16:13:29.920Z,7.97
2023-04-21T16:15:57.090Z,5.30
2023-04-21T16:18:24.192Z,6.65
2023-04-21T16:20:51.185Z,9.13
2023-04-21T16:23:21.653Z,4.47
2023-04-21T16:25:48.609Z,5.93
2023-04-21T16:28:15.998Z,5.88
2023-04-21T16:30:44.003Z,4.90
2023-04-21T16:33:11.753Z,5.40
2023-04-21T16:35:39.337Z,5.18
2023-04-21T16:38:06.766Z,8.07
2023-04-21T16:40:34.215Z,5.57
2023-04-21T16:43:01.625Z,5.10
2023-04-21T16:45:29.611Z,6.22
2023-04-21T16:47:57.210Z,5.47
2023-04-21T16:50:24.218Z,4.80
2023-04-21T16:52:51.107Z,3.67
2023-04-21T16:55:18.356Z,4.22
2023-04-21T16:57:45.929Z,7.95
2023-04-21T17:00:13.884Z,3.50
2023-04-21T17:02:40.959Z,4.20
2023-04-21T17:05:08.577Z,4.03
2023-04-21T17:07:35.491Z,3.63
2023-04-21T17:10:02.472Z,5.97
2023-04-21T17:12:29.486Z,3.38
2023-04-21T17:14:56.324Z,4.13
2023-04-21T17:17:23.392Z,5.07
2023-04-21T17:19:51.489Z,4.13
2023-04-21T17:22:18.301Z,3.95
2023-04-21T17:24:53.175Z,4.00
2023-04-21T17:27:23.376Z,4.55
2023-04-21T17:29:51.171Z,4.93
2023-04-21T17:32:18.306Z,5.35
2023-04-21T17:34:45.441Z,5.43
2023-04-21T17:37:12.368Z,7.57
2023-04-21T17:39:39.226Z,5.65
2023-04-21T17:42:06.634Z,5.68
2023-04-21T17:44:33.497Z,6.55
2023-04-21T17:47:00.596Z,7.35
2023-04-21T17:49:27.432Z,10.20
2023-04-21T17:51:54.360Z,8.05
2023-04-21T17:54:21.603Z,9.88
2023-04-21T17:56:48.645Z,8.15
2023-04-21T17:59:15.744Z,9.90
2023-04-21T18:01:42.606Z,8.10
2023-04-21T18:04:09.615Z,9.27
2023-04-21T18:06:36.677Z,7.40
2023-04-21T18:09:05.091Z,7.68
2023-04-21T18:11:32.275Z,5.93
2023-04-21T18:13:59.441Z,7.32
2023-04-21T18:16:26.765Z,6.25
2023-04-21T18:18:53.841Z,6.80
2023-04-21T18:21:21.386Z,8.75
2023-04-21T18:23:49.145Z,5.78
2023-04-21T18:26:16.209Z,7.70
2023-04-21T18:28:43.013Z,7.85
2023-04-21T18:31:10.791Z,6.03
2023-04-21T18:33:38.214Z,7.57
2023-04-21T18:36:06.169Z,8.75
2023-04-21T18:38:33.138Z,3.75
2023-04-21T18:41:00.165Z,2.50
2023-04-21T18:43:26.962Z,2.35
2023-04-21T18:45:53.818Z,3.35
2023-04-21T18:48:20.718Z,2.13
2023-04-21T18:50:48.784Z,3.92
2023-04-21T18:53:15.635Z,3.83
2023-04-21T18:55:42.440Z,3.00
2023-04-21T18:58:09.342Z,4.70
2023-04-21T19:00:39.091Z,3.35
2023-04-21T19:03:06.756Z,4.03
2023-04-21T19:05:35.912Z,7.50
2023-04-21T19:08:02.736Z,3.22
2023-04-21T19:10:29.841Z,4.28
2023-04-21T19:12:56.654Z,4.40
2023-04-21T19:15:23.578Z,3.78
2023-04-21T19:17:51.108Z,5.13
2023-04-21T19:20:18.247Z,3.90
2023-04-21T19:22:45.214Z,3.72
2023-04-21T19:25:12.473Z,4.90
2023-04-21T19:27:41.014Z,5.78
2023-04-21T19:30:08.774Z,6.45
2023-04-21T19:32:35.826Z,7.43
2023-04-21T19:35:02.761Z,4.20
2023-04-21T19:37:32.246Z,5.82
2023-04-21T19:40:00.631Z,7.18
2023-04-21T19:42:27.731Z,4.60
2023-04-21T19:44:54.603Z,6.15
2023-04-21T19:47:21.763Z,5.22
2023-04-21T19:49:48.652Z,5.75
2023-04-21T19:52:15.521Z,5.88
2023-04-21T19:54:42.363Z,5.10
2023-04-21T19:57:09.240Z,5.28
2023-04-21T19:59:36.820Z,5.10
2023-04-21T20:02:04.529Z,5.40
2023-04-21T20:04:32.215Z,8.50
2023-04-21T20:06:59.189Z,7.30
2023-04-21T20:09:26.109Z,8.68
2023-04-21T20:11:53.002Z,8.10
2023-04-21T20:14:21.568Z,6.38
2023-04-21T20:16:48.726Z,7.65
2023-04-21T20:19:17.368Z,6.53
2023-04-21T20:21:44.497Z,7.63
2023-04-21T20:24:12.253Z,8.23
2023-04-21T20:26:39.156Z,6.30
2023-04-21T20:29:06.251Z,5.88
2023-04-21T20:31:33.437Z,6.00
2023-04-21T20:34:00.313Z,6.40
2023-04-21T20:36:27.811Z,5.43
2023-04-21T20:38:57.366Z,8.48
2023-04-21T20:41:28.326Z,8.95
2023-04-21T20:43:56.430Z,6.43
2023-04-21T20:46:23.787Z,9.77
2023-04-21T20:48:51.528Z,9.13
2023-04-21T20:51:18.553Z,12.27
2023-04-21T20:53:45.486Z,9.07
2023-04-21T20:56:12.336Z,12.35
2023-04-21T20:58:40.417Z,9.43
2023-04-21T21:01:07.299Z,8.15
2023-04-21T21:03:34.378Z,8.23
2023-04-21T21:06:01.380Z,9.82
2023-04-21T21:08:29.205Z,13.77
2023-04-21T21:10:56.046Z,12.77
2023-04-21T21:13:22.991Z,9.90
2023-04-21T21:15:50.086Z,10.60
2023-04-21T21:18:18.476Z,8.32
2023-04-21T21:20:47.237Z,10.68
2023-04-21T21:23:14.049Z,8.80
2023-04-21T21:25:41.541Z,9.43
2023-04-21T21:28:08.822Z,10.05
2023-04-21T21:30:35.880Z,8.00
2023-04-21T21:33:03.079Z,8.52
2023-04-21T21:35:30.004Z,9.25
2023-04-21T21:37:57.372Z,8.93
2023-04-21T21:40:24.217Z,8.93
2023-04-21T21:42:51.897Z,7.80
2023-04-21T21:45:18.997Z,10.57
2023-04-21T21:47:46.104Z,11.23
2023-04-21T21:50:12.985Z,13.02
2023-04-21T21:52:39.908Z,9.57
2023-04-21T21:55:07.634Z,10.98
2023-04-21T21:57:34.824Z,10.35
2023-04-21T22:00:02.236Z,9.35
2023-04-21T22:02:29.458Z,12.25
2023-04-21T22:04:56.543Z,11.90
2023-04-21T22:07:25.406Z,12.15
2023-04-21T22:09:53.051Z,9.35
2023-04-21T22:12:19.892Z,10.02
2023-04-21T22:14:47.987Z,10.52
2023-04-21T22:17:16.011Z,9.60
2023-04-21T22:19:43.508Z,12.88
2023-04-21T22:22:10.734Z,9.52
2023-04-21T22:24:38.185Z,10.18
2023-04-21T22:27:05.062Z,9.73
2023-04-21T22:29:31.935Z,10.25
2023-04-21T22:32:00.488Z,13.40
2023-04-21T22:34:27.295Z,8.85
2023-04-21T22:36:55.596Z,10.45
2023-04-21T22:39:23.270Z,9.23
2023-04-21T22:41:51.035Z,9.70
2023-04-21T22:44:17.879Z,8.32
2023-04-21T22:46:45.001Z,11.30
2023-04-21T22:49:12.657Z,9.52
2023-04-21T22:51:40.385Z,11.43
2023-04-21T22:54:07.203Z,10.93
2023-04-21T22:56:34.007Z,8.25
2023-04-21T22:59:00.959Z,8.65
2023-04-21T23:01:28.282Z,9.23
2023-04-21T23:03:56.002Z,10.23
2023-04-21T23:06:23.221Z,7.72
2023-04-21T23:08:50.220Z,10.80
2023-04-21T23:11:17.064Z,11.98
2023-04-21T23:13:44.028Z,12.63
2023-04-21T23:16:11.214Z,9.80
2023-04-21T23:18:38.039Z,10.10
2023-04-21T23:21:04.916Z,8.50
2023-04-21T23:23:31.977Z,8.98
2023-04-21T23:25:58.802Z,8.00
2023-04-21T23:28:25.777Z,13.85
2023-04-21T23:30:53.996Z,10.52
2023-04-21T23:33:22.396Z,22.88
2023-04-21T23:35:49.337Z,23.75
2023-04-21T23:38:16.137Z,28.40
2023-04-21T23:40:43.539Z,24.88
2023-04-21T23:43:11.483Z,21.40
2023-04-21T23:45:38.395Z,17.48
2023-04-21T23:48:05.386Z,15.73
2023-04-21T23:50:32.396Z,12.48
2023-04-21T23:52:59.289Z,13.43
2023-04-21T23:55:26.118Z,14.68
2023-04-21T23:57:53.494Z,11.13
